createdAt,value
2022-09-27T00:11:00.686Z,7.80
2022-09-27T00:41:17.459Z,7.50
2022-09-27T01:11:37.987Z,7.40
2022-09-27T01:42:12.422Z,7.10
2022-09-27T02:12:31.227Z,7.00
2022-09-27T02:42:43.165Z,6.70
2022-09-27T03:12:52.293Z,6.70
2022-09-27T03:43:02.920Z,6.70
2022-09-27T04:13:18.101Z,6.40
2022-09-27T04:43:37.354Z,6.30
2022-09-27T05:13:46.639Z,6.30
2022-09-27T05:43:59.283Z,7.30
2022-09-27T06:14:10.871Z,8.70
2022-09-27T06:44:40.031Z,9.70
2022-09-27T07:15:12.787Z,11.70
2022-09-27T07:45:22.767Z,14.10
2022-09-27T08:15:44.959Z,17.70
2022-09-27T08:46:05.266Z,19.70
2022-09-27T09:16:26.358Z,17.40
2022-09-27T09:46:43.549Z,16.90
2022-09-27T10:17:01.477Z,17.40
2022-09-27T10:47:19.573Z,18.50
2022-09-27T11:17:47.270Z,17.10
2022-09-27T11:48:11.899Z,17.00
2022-09-27T12:18:32.331Z,16.60
2022-09-27T12:48:54.181Z,15.90
2022-09-27T13:19:04.367Z,15.40
2022-09-27T13:49:24.803Z,15.20
2022-09-27T14:19:56.239Z,12.50
2022-09-27T14:50:21.096Z,12.00
2022-09-27T15:20:34.902Z,12.10
2022-09-27T15:50:51.577Z,11.90
2022-09-27T16:21:00.930Z,12.10
2022-09-27T16:51:26.182Z,11.50
2022-09-27T17:21:38.053Z,11.30
2022-09-27T17:51:53.076Z,11.10
2022-09-27T18:22:11.316Z,10.90
2022-09-27T18:52:22.395Z,10.90
2022-09-27T19:22:34.344Z,11.10
2022-09-27T19:52:46.529Z,11.30
2022-09-27T20:22:58.379Z,10.90
2022-09-27T20:53:06.859Z,10.80
2022-09-27T21:23:15.926Z,11.00
2022-09-27T21:53:33.350Z,11.10
2022-09-27T22:23:42.860Z,10.90
2022-09-27T22:54:02.897Z,10.80
2022-09-27T23:24:13.402Z,10.70
2022-09-27T23:54:29.504Z,10.10
